High Falls, New York
Current Conditions -  °F | °C
As of 5:53 AM on Sunday 23 Nov 2014 (Local Time) from KPOU Reporting Station
Overcast Overcast  
Wind Chill: 40°   Ceiling: 5500
Heat Index: 44°   Visibility: 10mi
Dew Point: 20°   Wind: 7mph
Humidity: 38%   Direction: 210°SSW
Pressure: 30.14"   Gusts: NA
Location:  41.82°N, 74.11°W
Report Text: KPOU 231053Z AUTO 21006KT 10SM OVC055 07/M07 A3014 RMK AO2 SLP205 T00671067 TSNO
Loading
Personal Weather Stations






























Interactive Weather Map New forecast layout! Learn more

10-Day Weather Forecast

Advertisements
Track Severe Weather on mobile